createdAt,value
2022-11-20T00:01:37.548Z,99996.19
2022-11-20T00:06:40.334Z,99999.75
2022-11-20T00:11:43.086Z,100008.75
2022-11-20T00:16:47.318Z,100003.38
2022-11-20T00:21:52.283Z,100003.16
2022-11-20T00:26:55.166Z,99998.03
2022-11-20T00:31:59.537Z,99995.34
2022-11-20T00:37:02.315Z,99996.31
2022-11-20T00:42:05.376Z,100001.81
2022-11-20T00:47:09.669Z,100004.38
2022-11-20T00:52:12.451Z,100006.22
2022-11-20T00:57:15.273Z,100000.00
2022-11-20T01:02:19.492Z,99992.06
2022-11-20T01:07:22.406Z,99998.16
2022-11-20T01:12:25.200Z,99989.25
2022-11-20T01:17:29.286Z,99989.38
2022-11-20T01:22:32.025Z,99994.03
2022-11-20T01:27:34.925Z,99996.72
2022-11-20T01:32:38.999Z,99999.28
2022-11-20T01:37:41.763Z,99997.56
2022-11-20T01:43:04.997Z,99997.56
2022-11-20T01:48:09.192Z,99979.78
2022-11-20T01:53:13.260Z,99973.69
2022-11-20T01:58:16.294Z,99975.38
2022-11-20T02:03:20.768Z,99971.94
2022-11-20T02:08:23.583Z,99968.19
2022-11-20T02:13:43.658Z,99958.66
2022-11-20T02:18:47.774Z,99961.03
2022-11-20T02:24:03.787Z,99964.50
2022-11-20T02:29:06.544Z,99956.22
2022-11-20T02:34:09.314Z,99954.06
2022-11-20T02:39:14.100Z,99961.88
2022-11-20T02:44:16.852Z,99949.72
2022-11-20T02:49:20.199Z,99959.44
2022-11-20T02:54:24.764Z,99952.09
2022-11-20T02:59:27.558Z,99948.63
2022-11-20T03:04:30.426Z,99936.31
2022-11-20T03:09:34.606Z,99941.03
2022-11-20T03:14:37.366Z,99942.53
2022-11-20T03:19:40.146Z,99938.66
2022-11-20T03:24:44.332Z,99934.44
2022-11-20T03:29:47.150Z,99938.47
2022-11-20T03:34:49.940Z,99940.22
2022-11-20T03:39:54.067Z,99939.63
2022-11-20T03:44:57.033Z,99940.22
2022-11-20T03:50:00.026Z,99928.06
2022-11-20T03:55:04.377Z,99920.41
2022-11-20T04:00:08.591Z,99911.38
2022-11-20T04:05:11.361Z,99906.78
2022-11-20T04:10:15.602Z,99897.03
2022-11-20T04:15:19.213Z,99915.28
2022-11-20T04:20:22.337Z,99909.66
2022-11-20T04:25:26.522Z,99913.66
2022-11-20T04:30:29.649Z,99917.94
2022-11-20T04:35:32.445Z,99909.03
2022-11-20T04:40:36.577Z,99907.59
2022-11-20T04:45:39.564Z,99905.88
2022-11-20T04:50:42.399Z,99911.59
2022-11-20T04:55:46.712Z,99918.28
2022-11-20T05:00:52.640Z,99910.59
2022-11-20T05:05:55.493Z,99911.31
2022-11-20T05:11:03.213Z,99900.13
2022-11-20T05:16:06.937Z,99898.91
2022-11-20T05:21:10.250Z,99894.88
2022-11-20T05:26:16.594Z,99898.50
2022-11-20T05:31:26.210Z,99908.59
2022-11-20T05:36:29.725Z,99898.28
2022-11-20T05:41:34.833Z,99899.13
2022-11-20T05:46:37.816Z,99889.28
2022-11-20T05:51:40.731Z,99874.53
2022-11-20T05:56:45.051Z,99880.97
2022-11-20T06:01:47.812Z,99878.50
2022-11-20T06:06:50.591Z,99873.28
2022-11-20T06:11:54.689Z,99876.31
2022-11-20T06:16:57.456Z,99881.69
2022-11-20T06:22:00.212Z,99874.63
2022-11-20T06:27:04.364Z,99880.94
2022-11-20T06:32:07.259Z,99876.56
2022-11-20T06:37:10.105Z,99876.66
2022-11-20T06:42:14.299Z,99878.47
2022-11-20T06:47:17.100Z,99875.81
2022-11-20T06:52:20.164Z,99876.03
2022-11-20T06:57:24.313Z,99884.03
2022-11-20T07:02:27.124Z,99885.25
2022-11-20T07:07:29.888Z,99869.09
2022-11-20T07:12:34.012Z,99867.16
2022-11-20T07:17:36.825Z,99872.63
2022-11-20T07:22:39.630Z,99867.03
2022-11-20T07:27:43.753Z,99866.03
2022-11-20T07:32:48.485Z,99872.38
2022-11-20T07:37:51.316Z,99861.56
2022-11-20T07:42:56.091Z,99872.25
2022-11-20T07:47:59.083Z,99870.91
2022-11-20T07:53:05.513Z,99870.16
2022-11-20T07:58:09.625Z,99876.34
2022-11-20T08:03:12.360Z,99864.91
2022-11-20T08:08:15.118Z,99849.84
2022-11-20T08:13:35.740Z,99853.63
2022-11-20T08:18:38.539Z,99857.03
2022-11-20T08:23:41.272Z,99846.22
2022-11-20T08:28:46.149Z,99847.56
2022-11-20T08:33:48.900Z,99843.72
2022-11-20T08:38:52.108Z,99839.84
2022-11-20T08:43:57.931Z,99847.13
2022-11-20T08:49:00.882Z,99858.41
2022-11-20T08:54:04.068Z,99880.63
2022-11-20T08:59:44.102Z,99874.09
2022-11-20T09:04:30.919Z,99860.19
2022-11-20T09:09:33.660Z,99868.13
2022-11-20T09:14:37.727Z,99852.03
2022-11-20T09:19:40.480Z,99855.09
2022-11-20T09:24:43.732Z,99860.28
2022-11-20T09:29:47.831Z,99860.59
2022-11-20T09:34:50.582Z,99858.25
2022-11-20T09:39:53.372Z,99854.28
2022-11-20T09:45:04.416Z,99849.59
2022-11-20T09:50:21.540Z,99838.34
2022-11-20T09:55:24.395Z,99838.84
2022-11-20T10:00:28.581Z,99851.66
2022-11-20T10:05:33.569Z,99842.41
2022-11-20T10:10:42.699Z,99845.78
2022-11-20T10:15:55.448Z,99832.72
2022-11-20T10:21:00.432Z,99827.94
2022-11-20T10:26:04.349Z,99807.78
2022-11-20T10:31:10.699Z,99810.31
2022-11-20T10:36:16.890Z,99806.47
2022-11-20T10:41:30.886Z,99807.06
2022-11-20T10:46:40.223Z,99798.53
2022-11-20T10:51:49.712Z,99779.75
2022-11-20T10:56:53.241Z,99778.69
2022-11-20T11:01:57.347Z,99769.19
2022-11-20T11:07:04.952Z,99755.28
2022-11-20T11:12:09.334Z,99752.50
2022-11-20T11:17:27.869Z,99741.53
2022-11-20T11:22:31.070Z,99737.63
2022-11-20T11:27:34.271Z,99740.44
2022-11-20T11:32:38.407Z,99737.75
2022-11-20T11:37:41.239Z,99735.28
2022-11-20T11:42:44.194Z,99734.53
2022-11-20T11:47:49.275Z,99741.72
2022-11-20T11:53:07.712Z,99729.06
2022-11-20T11:58:20.481Z,99732.75
2022-11-20T12:03:27.522Z,99720.28
2022-11-20T12:08:33.571Z,99731.22
2022-11-20T12:13:41.948Z,99733.31
2022-11-20T12:18:46.432Z,99721.50
2022-11-20T12:24:09.008Z,99718.69
2022-11-20T12:29:13.653Z,99715.91
2022-11-20T12:34:32.050Z,99709.63
2022-11-20T12:39:36.865Z,99717.47
2022-11-20T12:45:05.616Z,99709.97
2022-11-20T12:50:12.541Z,99700.47
2022-11-20T12:55:18.735Z,99690.00
2022-11-20T13:00:22.219Z,99687.41
2022-11-20T13:05:31.578Z,99682.34
2022-11-20T13:10:37.575Z,99680.09
2022-11-20T13:15:49.782Z,99675.31
2022-11-20T13:20:54.159Z,99673.47
2022-11-20T13:26:07.644Z,99681.25
2022-11-20T13:31:12.131Z,99690.47
2022-11-20T13:36:24.543Z,99686.41
2022-11-20T13:41:32.234Z,99679.00
2022-11-20T13:46:39.025Z,99665.44
2022-11-20T13:51:45.629Z,99664.72
2022-11-20T13:56:54.073Z,99664.88
2022-11-20T14:01:56.843Z,99652.13
2022-11-20T14:07:01.010Z,99640.69
2022-11-20T14:12:04.719Z,99640.53
2022-11-20T14:17:08.353Z,99645.06
2022-11-20T14:22:20.968Z,99651.81
2022-11-20T14:27:23.842Z,99652.63
2022-11-20T14:32:28.640Z,99647.38
2022-11-20T14:37:34.707Z,99655.72
2022-11-20T14:42:38.432Z,99647.25
2022-11-20T14:47:41.184Z,99649.25
2022-11-20T14:52:53.666Z,99635.88
2022-11-20T14:57:57.138Z,99639.72
2022-11-20T15:02:59.884Z,99650.03
2022-11-20T15:08:13.050Z,99652.19
2022-11-20T15:13:17.034Z,99653.59
2022-11-20T15:18:20.653Z,99663.50
2022-11-20T15:23:25.149Z,99668.72
2022-11-20T15:28:31.255Z,99667.06
2022-11-20T15:33:34.266Z,99657.78
2022-11-20T15:38:38.681Z,99646.44
2022-11-20T15:43:41.564Z,99654.13
2022-11-20T15:48:48.344Z,99658.91
2022-11-20T15:58:55.734Z,99658.91
2022-11-20T16:03:58.479Z,99656.66
2022-11-20T16:09:02.619Z,99640.50
2022-11-20T16:14:22.864Z,99638.38
2022-11-20T16:19:25.849Z,99644.03
2022-11-20T16:24:30.041Z,99640.50
2022-11-20T16:29:32.835Z,99647.16
2022-11-20T16:34:35.580Z,99643.03
2022-11-20T16:39:39.721Z,99635.09
2022-11-20T16:44:42.502Z,99636.50
2022-11-20T16:49:45.250Z,99635.06
2022-11-20T16:54:49.419Z,99627.25
2022-11-20T16:59:52.192Z,99624.09
2022-11-20T17:04:54.952Z,99624.81
2022-11-20T17:09:59.103Z,99620.84
2022-11-20T17:15:01.893Z,99622.69
2022-11-20T17:20:05.191Z,99612.28
2022-11-20T17:25:09.983Z,99612.88
2022-11-20T17:30:13.143Z,99607.78
2022-11-20T17:35:16.085Z,99587.13
2022-11-20T17:40:24.534Z,99589.59
2022-11-20T17:45:30.069Z,99592.50
2022-11-20T17:50:32.937Z,99588.13
2022-11-20T17:55:55.925Z,99591.28
2022-11-20T18:01:05.926Z,99588.72
2022-11-20T18:06:11.992Z,99586.22
2022-11-20T18:11:17.087Z,99592.34
2022-11-20T18:16:19.839Z,99578.47
2022-11-20T18:21:22.710Z,99570.44
2022-11-20T18:26:27.048Z,99565.38
2022-11-20T18:31:29.850Z,99563.25
2022-11-20T18:36:33.381Z,99554.97
2022-11-20T18:41:54.908Z,99552.28
2022-11-20T18:46:57.689Z,99545.94
2022-11-20T18:52:00.481Z,99541.28
2022-11-20T18:57:04.880Z,99534.38
2022-11-20T19:02:07.825Z,99531.81
2022-11-20T19:07:12.264Z,99524.03
2022-11-20T19:12:16.744Z,99517.97
2022-11-20T19:17:19.745Z,99515.44
2022-11-20T19:22:22.781Z,99510.28
2022-11-20T19:27:27.360Z,99485.56
2022-11-20T19:32:32.609Z,99492.94
2022-11-20T19:37:35.657Z,99488.25
2022-11-20T19:42:40.146Z,99478.66
2022-11-20T19:53:07.354Z,99461.78
2022-11-20T19:58:11.665Z,99453.41
2022-11-20T20:03:14.446Z,99434.88
2022-11-20T20:08:17.301Z,99430.47
2022-11-20T20:13:21.424Z,99431.19
2022-11-20T20:18:24.180Z,99437.69
2022-11-20T20:23:27.020Z,99422.41
2022-11-20T20:28:31.245Z,99418.34
2022-11-20T20:33:34.310Z,99416.50
2022-11-20T20:38:37.436Z,99416.50
2022-11-20T20:43:58.851Z,99414.66
2022-11-20T20:49:01.634Z,99413.81
2022-11-20T20:54:04.465Z,99397.38
2022-11-20T20:59:08.603Z,99403.19
2022-11-20T21:04:11.844Z,99411.13
2022-11-20T21:09:14.861Z,99393.44
2022-11-20T21:14:19.450Z,99386.06
2022-11-20T21:19:22.269Z,99375.50
2022-11-20T21:24:25.465Z,99372.66
2022-11-20T21:29:31.073Z,99366.13
2022-11-20T21:34:33.868Z,99361.06
2022-11-20T21:39:50.476Z,99353.31
2022-11-20T21:44:54.698Z,99333.88
2022-11-20T21:49:57.461Z,99323.94
2022-11-20T21:55:00.291Z,99330.06
2022-11-20T22:00:05.307Z,99321.56
2022-11-20T22:05:13.036Z,99318.50
2022-11-20T22:10:18.673Z,99317.19
2022-11-20T22:15:45.756Z,99301.91
2022-11-20T22:20:45.825Z,99284.38
2022-11-20T22:25:48.704Z,99276.31
2022-11-20T22:30:52.915Z,99268.41
2022-11-20T22:36:01.168Z,99249.75
2022-11-20T22:41:04.502Z,99233.78
2022-11-20T22:46:09.372Z,99233.78
2022-11-20T22:51:13.768Z,99219.34
2022-11-20T22:56:16.775Z,99214.28
2022-11-20T23:01:21.559Z,99205.06
2022-11-20T23:06:24.688Z,99191.94
2022-11-20T23:11:28.449Z,99185.56
2022-11-20T23:16:32.736Z,99163.50
2022-11-20T23:21:35.982Z,99163.38
2022-11-20T23:26:39.824Z,99147.38
2022-11-20T23:31:44.280Z,99128.97
2022-11-20T23:36:47.022Z,99126.59
2022-11-20T23:41:49.775Z,99120.16
2022-11-20T23:46:53.871Z,99107.16
2022-11-20T23:51:56.807Z,99103.28
2022-11-20T23:56:59.937Z,99090.59
